createdAt,value
2023-10-29T00:02:15.295Z,0.50
2023-10-29T00:05:00.189Z,0.60
2023-10-29T00:07:45.201Z,0.40
2023-10-29T00:10:30.538Z,0.60
2023-10-29T00:13:16.428Z,0.60
2023-10-29T00:16:01.616Z,0.40
2023-10-29T00:18:46.760Z,0.57
2023-10-29T00:21:35.510Z,0.40
2023-10-29T00:24:20.853Z,0.40
2023-10-29T00:27:06.416Z,0.35
2023-10-29T00:29:51.444Z,0.40
2023-10-29T00:32:36.407Z,0.70
2023-10-29T00:35:21.451Z,0.55
2023-10-29T00:38:06.389Z,0.77
2023-10-29T00:40:51.440Z,0.50
2023-10-29T00:43:42.585Z,0.50
2023-10-29T00:46:27.995Z,0.60
2023-10-29T00:49:13.206Z,0.50
2023-10-29T00:51:58.402Z,0.60
2023-10-29T00:54:43.314Z,0.52
2023-10-29T00:57:29.384Z,0.50
2023-10-29T01:00:18.971Z,0.60
2023-10-29T01:03:04.224Z,0.60
2023-10-29T01:05:50.213Z,0.40
2023-10-29T01:08:35.849Z,0.65
2023-10-29T01:11:21.394Z,0.70
2023-10-29T01:14:06.482Z,0.43
2023-10-29T01:16:51.621Z,0.50
2023-10-29T01:19:36.560Z,0.50
2023-10-29T01:22:21.671Z,0.57
2023-10-29T01:25:10.682Z,0.40
2023-10-29T01:27:57.153Z,0.70
2023-10-29T01:30:43.952Z,0.52
2023-10-29T01:33:29.157Z,0.40
2023-10-29T01:36:14.167Z,0.45
2023-10-29T01:38:59.102Z,0.40
2023-10-29T01:41:44.386Z,1.08
2023-10-29T01:44:29.268Z,0.45
2023-10-29T01:47:14.765Z,0.40
2023-10-29T01:49:59.938Z,0.52
2023-10-29T01:52:45.286Z,0.40
2023-10-29T01:55:30.384Z,0.30
2023-10-29T01:58:15.582Z,0.60
2023-10-29T02:01:01.065Z,0.47
2023-10-29T02:03:46.296Z,0.50
2023-10-29T02:06:31.326Z,0.50
2023-10-29T02:09:16.345Z,0.50
2023-10-29T02:12:01.632Z,0.50
2023-10-29T02:14:46.909Z,0.50
2023-10-29T02:17:32.686Z,0.57
2023-10-29T02:20:18.352Z,0.63
2023-10-29T02:23:03.454Z,0.40
2023-10-29T02:25:48.690Z,0.47
2023-10-29T02:28:33.580Z,0.60
2023-10-29T02:31:19.830Z,0.40
2023-10-29T02:34:04.997Z,0.60
2023-10-29T02:36:49.962Z,0.38
2023-10-29T02:39:34.898Z,0.20
2023-10-29T02:42:20.206Z,0.38
2023-10-29T02:45:05.890Z,0.30
2023-10-29T02:47:50.826Z,0.23
2023-10-29T02:50:39.244Z,0.30
2023-10-29T02:53:24.165Z,0.40
2023-10-29T02:56:09.194Z,0.40
2023-10-29T02:58:54.374Z,0.30
2023-10-29T03:01:39.907Z,0.30
2023-10-29T03:04:24.761Z,0.30
2023-10-29T03:07:10.136Z,0.30
2023-10-29T03:09:55.448Z,0.20
2023-10-29T03:12:40.735Z,0.30
2023-10-29T03:15:27.027Z,0.37
2023-10-29T03:18:13.317Z,0.20
2023-10-29T03:20:58.676Z,0.28
2023-10-29T03:23:43.786Z,0.30
2023-10-29T03:26:29.658Z,0.30
2023-10-29T03:29:14.799Z,0.30
2023-10-29T03:32:00.003Z,0.60
2023-10-29T03:34:44.982Z,0.43
2023-10-29T03:37:29.836Z,0.30
2023-10-29T03:40:14.892Z,0.30
2023-10-29T03:43:00.112Z,0.37
2023-10-29T03:45:45.490Z,0.40
2023-10-29T03:48:30.785Z,0.30
2023-10-29T03:51:15.970Z,0.30
2023-10-29T03:54:01.275Z,0.40
2023-10-29T03:56:46.081Z,0.40
2023-10-29T03:59:31.218Z,0.45
2023-10-29T04:02:16.267Z,0.50
2023-10-29T04:05:08.832Z,0.30
2023-10-29T04:07:55.013Z,0.40
2023-10-29T04:10:40.415Z,0.40
2023-10-29T04:13:25.166Z,0.40
2023-10-29T04:16:10.208Z,0.40
2023-10-29T04:18:55.277Z,0.43
2023-10-29T04:21:40.315Z,0.50
2023-10-29T04:24:25.237Z,0.60
2023-10-29T04:27:10.244Z,0.50
2023-10-29T04:29:55.767Z,0.40
2023-10-29T04:32:40.945Z,0.40
2023-10-29T04:35:25.928Z,0.45
2023-10-29T04:38:10.884Z,0.47
2023-10-29T04:40:56.066Z,0.40
2023-10-29T04:43:42.907Z,0.22
2023-10-29T04:46:27.922Z,0.32
2023-10-29T04:49:13.188Z,0.20
2023-10-29T04:51:58.399Z,0.30
2023-10-29T04:54:43.722Z,0.40
2023-10-29T04:57:29.768Z,0.30
2023-10-29T05:00:14.946Z,0.30
2023-10-29T05:03:00.061Z,0.45
2023-10-29T05:05:44.846Z,0.20
2023-10-29T05:08:29.825Z,0.50
2023-10-29T05:11:15.048Z,0.30
2023-10-29T05:13:59.947Z,0.30
2023-10-29T05:16:44.970Z,0.65
2023-10-29T05:19:29.929Z,0.20
2023-10-29T05:22:15.161Z,0.30
2023-10-29T05:25:00.025Z,0.30
2023-10-29T05:27:56.134Z,0.28
2023-10-29T05:30:41.204Z,0.43
2023-10-29T05:33:26.488Z,0.30
2023-10-29T05:36:11.538Z,0.35
2023-10-29T05:38:56.791Z,0.70
2023-10-29T05:41:42.432Z,0.20
2023-10-29T05:44:27.386Z,0.30
2023-10-29T05:47:12.453Z,0.40
2023-10-29T05:49:57.604Z,0.20
2023-10-29T05:52:43.839Z,0.38
2023-10-29T05:55:28.839Z,0.22
2023-10-29T05:58:13.982Z,0.30
2023-10-29T06:00:58.917Z,0.30
2023-10-29T06:03:43.796Z,0.30
2023-10-29T06:06:29.756Z,0.40
2023-10-29T06:09:23.758Z,0.30
2023-10-29T06:12:10.843Z,0.60
2023-10-29T06:14:56.324Z,0.30
2023-10-29T06:17:43.114Z,0.20
2023-10-29T06:20:28.399Z,0.40
2023-10-29T06:23:13.468Z,0.40
2023-10-29T06:25:58.369Z,0.28
2023-10-29T06:28:43.435Z,0.40
2023-10-29T06:31:30.482Z,0.35
2023-10-29T06:34:15.303Z,0.30
2023-10-29T06:37:00.223Z,0.22
2023-10-29T06:39:45.198Z,0.30
2023-10-29T06:42:30.940Z,0.30
2023-10-29T06:45:16.026Z,0.30
2023-10-29T06:48:01.391Z,0.40
2023-10-29T06:50:46.399Z,0.20
2023-10-29T06:53:31.425Z,0.30
2023-10-29T06:56:16.362Z,0.30
2023-10-29T06:59:01.286Z,0.30
2023-10-29T07:01:48.231Z,0.30
2023-10-29T07:04:33.612Z,0.20
2023-10-29T07:07:19.608Z,0.40
2023-10-29T07:10:05.345Z,0.20
2023-10-29T07:12:50.181Z,0.20
2023-10-29T07:15:35.859Z,0.20
2023-10-29T07:18:21.256Z,0.30
2023-10-29T07:21:06.468Z,0.30
2023-10-29T07:23:51.441Z,0.30
2023-10-29T07:26:36.429Z,0.10
2023-10-29T07:29:21.481Z,0.20
2023-10-29T07:32:06.867Z,0.35
2023-10-29T07:34:52.021Z,0.30
2023-10-29T07:37:36.873Z,0.10
2023-10-29T07:40:22.145Z,0.30
2023-10-29T07:43:07.369Z,0.20
2023-10-29T07:45:53.290Z,0.20
2023-10-29T07:48:38.379Z,0.32
2023-10-29T07:51:23.605Z,0.20
2023-10-29T07:54:08.788Z,0.25
2023-10-29T07:56:54.439Z,0.20
2023-10-29T07:59:39.242Z,0.20
2023-10-29T08:02:24.519Z,0.30
2023-10-29T08:05:12.998Z,0.40
2023-10-29T08:07:58.026Z,0.30
2023-10-29T08:10:42.923Z,0.30
2023-10-29T08:13:28.270Z,0.20
2023-10-29T08:16:14.490Z,0.30
2023-10-29T08:18:59.438Z,0.30
2023-10-29T08:21:44.598Z,0.25
2023-10-29T08:24:29.482Z,0.30
2023-10-29T08:27:14.465Z,0.40
2023-10-29T08:29:59.459Z,0.40
2023-10-29T08:32:44.800Z,0.53
2023-10-29T08:35:29.846Z,0.40
2023-10-29T08:38:14.681Z,0.40
2023-10-29T08:41:00.189Z,0.30
2023-10-29T08:43:45.706Z,0.43
2023-10-29T08:46:30.684Z,0.40
2023-10-29T08:49:16.228Z,0.40
2023-10-29T08:52:01.221Z,0.30
2023-10-29T08:54:47.074Z,0.30
2023-10-29T08:57:32.437Z,0.38
2023-10-29T09:00:17.585Z,0.30
2023-10-29T09:03:03.374Z,0.40
2023-10-29T09:05:49.286Z,0.40
2023-10-29T09:08:34.771Z,0.45
2023-10-29T09:11:19.971Z,0.20
2023-10-29T09:14:05.988Z,0.33
2023-10-29T09:16:51.069Z,0.30
2023-10-29T09:19:36.200Z,0.30
2023-10-29T09:22:21.265Z,0.25
2023-10-29T09:25:06.991Z,0.30
2023-10-29T09:27:51.997Z,0.20
2023-10-29T09:30:37.011Z,0.30
2023-10-29T09:33:22.269Z,0.50
2023-10-29T09:36:08.554Z,0.70
2023-10-29T09:38:53.681Z,0.32
2023-10-29T09:41:39.776Z,0.40
2023-10-29T09:44:25.777Z,0.38
2023-10-29T09:47:15.982Z,0.40
2023-10-29T09:50:02.233Z,0.20
2023-10-29T09:52:54.005Z,0.40
2023-10-29T09:55:40.365Z,0.20
2023-10-29T09:58:27.162Z,0.30
2023-10-29T10:01:12.264Z,0.30
2023-10-29T10:03:57.255Z,0.28
2023-10-29T10:06:43.439Z,0.40
2023-10-29T10:09:57.662Z,0.40
2023-10-29T10:12:47.359Z,0.50
2023-10-29T10:15:32.882Z,1.10
2023-10-29T10:18:18.255Z,0.40
2023-10-29T10:21:03.414Z,0.43
2023-10-29T10:23:50.975Z,0.57
2023-10-29T10:26:37.755Z,0.50
2023-10-29T10:29:32.744Z,0.50
2023-10-29T10:32:25.340Z,0.50
2023-10-29T10:35:10.593Z,0.55
2023-10-29T10:37:56.338Z,0.50
2023-10-29T10:40:41.743Z,0.50
2023-10-29T10:43:28.728Z,0.93
2023-10-29T10:46:15.006Z,0.63
2023-10-29T10:49:01.225Z,0.55
2023-10-29T10:51:59.118Z,0.60
2023-10-29T10:54:44.810Z,0.50
2023-10-29T10:57:30.775Z,0.43
2023-10-29T11:00:17.890Z,0.30
2023-10-29T11:03:07.178Z,0.20
2023-10-29T11:05:59.997Z,0.30
2023-10-29T11:08:45.457Z,0.40
2023-10-29T11:11:34.593Z,0.30
2023-10-29T11:14:21.065Z,0.30
2023-10-29T11:17:06.415Z,0.50
2023-10-29T11:19:51.746Z,0.60
2023-10-29T11:22:48.669Z,0.40
2023-10-29T11:25:34.490Z,0.60
2023-10-29T11:28:25.396Z,0.50
2023-10-29T11:31:17.980Z,0.20
2023-10-29T11:34:06.019Z,0.40
2023-10-29T11:36:51.422Z,0.38
2023-10-29T11:39:37.143Z,0.30
2023-10-29T11:42:26.860Z,0.20
2023-10-29T11:45:30.467Z,0.30
2023-10-29T11:48:17.802Z,0.30
2023-10-29T11:51:04.936Z,0.25
2023-10-29T11:53:50.227Z,0.30
2023-10-29T11:56:35.779Z,0.20
2023-10-29T11:59:20.628Z,0.30
2023-10-29T12:02:05.938Z,0.30
2023-10-29T12:04:51.397Z,0.45
2023-10-29T12:07:36.667Z,0.30
2023-10-29T12:10:21.793Z,0.32
2023-10-29T12:13:06.977Z,0.30
2023-10-29T12:16:01.564Z,0.37
2023-10-29T12:18:51.132Z,0.40
2023-10-29T12:21:36.181Z,0.20
2023-10-29T12:24:21.233Z,0.30
2023-10-29T12:27:06.605Z,0.30
2023-10-29T12:29:52.563Z,0.40
2023-10-29T12:32:37.649Z,0.22
2023-10-29T12:35:35.742Z,0.38
2023-10-29T12:38:22.392Z,0.40
2023-10-29T12:41:09.424Z,0.20
2023-10-29T12:43:54.500Z,0.37
2023-10-29T12:46:48.852Z,0.30
2023-10-29T12:49:35.195Z,0.20
2023-10-29T12:52:20.421Z,0.32
2023-10-29T12:55:08.397Z,0.40
2023-10-29T12:57:53.778Z,0.30
2023-10-29T13:00:38.948Z,0.20
2023-10-29T13:03:25.941Z,0.20
2023-10-29T13:06:11.602Z,0.38
2023-10-29T13:08:56.532Z,0.30
2023-10-29T13:11:41.688Z,0.40
2023-10-29T13:14:27.448Z,0.57
2023-10-29T13:17:15.067Z,0.20
2023-10-29T13:20:00.240Z,0.88
2023-10-29T13:22:46.049Z,0.50
2023-10-29T13:25:31.358Z,0.40
2023-10-29T13:28:16.650Z,0.20
2023-10-29T13:31:02.019Z,0.20
2023-10-29T13:33:49.050Z,0.40
2023-10-29T13:36:34.369Z,0.40
2023-10-29T13:39:20.481Z,0.40
2023-10-29T13:42:06.261Z,0.40
2023-10-29T13:44:53.653Z,0.30
2023-10-29T13:47:40.256Z,0.32
2023-10-29T13:50:25.488Z,0.30
2023-10-29T13:53:10.973Z,0.20
2023-10-29T13:56:05.386Z,0.20
2023-10-29T13:58:50.601Z,0.20
2023-10-29T14:01:36.258Z,0.15
2023-10-29T14:04:21.515Z,0.30
2023-10-29T14:07:06.731Z,0.30
2023-10-29T14:09:51.684Z,0.20
2023-10-29T14:12:37.019Z,0.25
2023-10-29T14:15:22.429Z,0.28
2023-10-29T14:18:07.453Z,0.20
2023-10-29T14:20:52.852Z,0.23
2023-10-29T14:23:38.052Z,0.30
2023-10-29T14:26:23.537Z,0.20
2023-10-29T14:29:08.502Z,0.20
2023-10-29T14:31:54.482Z,0.25
2023-10-29T14:34:39.571Z,0.10
2023-10-29T14:37:24.463Z,0.32
2023-10-29T14:40:09.623Z,0.10
2023-10-29T14:43:05.121Z,0.10
2023-10-29T14:46:03.913Z,0.10
2023-10-29T14:48:49.128Z,0.10
2023-10-29T14:51:34.624Z,0.10
2023-10-29T14:54:19.970Z,0.20
2023-10-29T14:57:17.928Z,0.20
2023-10-29T15:00:11.819Z,0.10
2023-10-29T15:02:57.049Z,0.30
2023-10-29T15:05:42.176Z,0.20
2023-10-29T15:08:27.678Z,0.25
2023-10-29T15:11:14.953Z,0.20
2023-10-29T15:14:06.430Z,0.20
2023-10-29T15:16:51.742Z,0.20
2023-10-29T15:19:37.502Z,0.20
2023-10-29T15:22:22.936Z,0.10
2023-10-29T15:25:09.622Z,0.10
2023-10-29T15:27:54.788Z,0.20
2023-10-29T15:30:40.025Z,0.20
2023-10-29T15:33:25.347Z,0.10
2023-10-29T15:36:11.758Z,0.25
2023-10-29T15:38:57.364Z,0.20
2023-10-29T15:41:43.314Z,0.20
2023-10-29T15:44:28.398Z,0.20
2023-10-29T15:47:13.418Z,0.20
2023-10-29T15:49:58.828Z,0.45
2023-10-29T15:52:44.221Z,0.30
2023-10-29T15:55:29.568Z,0.20
2023-10-29T15:58:19.259Z,0.50
2023-10-29T16:01:04.353Z,0.43
2023-10-29T16:03:49.370Z,0.70
2023-10-29T16:06:34.731Z,0.20
2023-10-29T16:09:19.931Z,0.50
2023-10-29T16:12:09.182Z,0.20
2023-10-29T16:14:54.104Z,0.40
2023-10-29T16:17:39.860Z,0.30
2023-10-29T16:20:25.279Z,0.47
2023-10-29T16:23:10.262Z,0.32
2023-10-29T16:25:55.110Z,0.40
2023-10-29T16:28:40.201Z,0.40
2023-10-29T16:31:25.494Z,0.30
2023-10-29T16:34:10.626Z,0.20
2023-10-29T16:36:56.042Z,0.38
2023-10-29T16:39:41.131Z,0.40
2023-10-29T16:42:26.438Z,0.30
2023-10-29T16:45:11.410Z,0.40
2023-10-29T16:47:57.446Z,0.30
2023-10-29T16:50:56.361Z,0.40
2023-10-29T16:53:47.548Z,0.30
2023-10-29T16:56:33.272Z,0.45
2023-10-29T16:59:19.708Z,0.20
2023-10-29T17:02:05.067Z,0.75
2023-10-29T17:04:50.693Z,0.50
2023-10-29T17:07:36.250Z,0.40
2023-10-29T17:10:21.760Z,0.77
2023-10-29T17:13:06.641Z,0.80
2023-10-29T17:16:03.056Z,0.60
2023-10-29T17:18:48.281Z,0.80
2023-10-29T17:21:33.554Z,0.40
2023-10-29T17:24:18.425Z,0.30
2023-10-29T17:27:04.815Z,0.60
2023-10-29T17:29:51.507Z,0.50
2023-10-29T17:32:36.344Z,0.57
2023-10-29T17:35:21.260Z,0.40
2023-10-29T17:38:06.251Z,0.57
2023-10-29T17:40:51.298Z,0.55
2023-10-29T17:43:36.507Z,0.60
2023-10-29T17:46:22.411Z,0.40
2023-10-29T17:49:07.666Z,0.50
2023-10-29T17:51:53.072Z,0.40
2023-10-29T17:54:38.496Z,0.90
2023-10-29T17:57:23.822Z,0.57
2023-10-29T18:00:09.294Z,0.82
2023-10-29T18:02:54.805Z,0.70
2023-10-29T18:05:39.962Z,0.60
2023-10-29T18:08:24.904Z,0.73
2023-10-29T18:11:12.040Z,0.40
2023-10-29T18:13:57.135Z,0.30
2023-10-29T18:16:42.169Z,0.40
2023-10-29T18:19:27.009Z,0.35
2023-10-29T18:22:12.273Z,0.57
2023-10-29T18:24:57.736Z,0.52
2023-10-29T18:27:43.002Z,0.40
2023-10-29T18:30:28.282Z,0.30
2023-10-29T18:33:13.528Z,0.22
2023-10-29T18:36:06.279Z,0.30
2023-10-29T18:38:51.560Z,0.30
2023-10-29T18:41:36.684Z,0.30
2023-10-29T18:44:22.956Z,0.27
2023-10-29T18:47:11.761Z,0.65
2023-10-29T18:49:58.456Z,0.32
2023-10-29T18:52:43.474Z,0.88
2023-10-29T18:55:28.573Z,0.40
2023-10-29T18:58:13.566Z,0.70
2023-10-29T19:01:09.241Z,0.35
2023-10-29T19:03:54.667Z,0.60
2023-10-29T19:06:39.528Z,0.40
2023-10-29T19:09:24.467Z,0.50
2023-10-29T19:12:09.490Z,0.40
2023-10-29T19:14:54.357Z,0.43
2023-10-29T19:17:41.116Z,0.50
2023-10-29T19:20:25.874Z,0.55
2023-10-29T19:23:11.222Z,0.28
2023-10-29T19:25:58.175Z,0.40
2023-10-29T19:28:43.594Z,0.32
2023-10-29T19:31:28.805Z,0.40
2023-10-29T19:34:13.769Z,0.43
2023-10-29T19:36:58.650Z,0.30
2023-10-29T19:39:43.737Z,0.27
2023-10-29T19:42:28.549Z,0.90
2023-10-29T19:45:13.673Z,0.52
2023-10-29T19:47:58.807Z,0.50
2023-10-29T19:50:44.265Z,0.70
2023-10-29T19:53:30.695Z,0.40
2023-10-29T19:56:16.096Z,0.50
2023-10-29T19:59:01.796Z,0.90
2023-10-29T20:01:46.888Z,0.50
2023-10-29T20:04:32.228Z,0.50
2023-10-29T20:07:17.145Z,0.40
2023-10-29T20:10:02.152Z,0.55
2023-10-29T20:12:47.368Z,0.35
2023-10-29T20:15:35.109Z,0.60
2023-10-29T20:18:20.457Z,0.43
2023-10-29T20:21:17.038Z,0.63
2023-10-29T20:24:05.228Z,0.45
2023-10-29T20:26:50.096Z,0.55
2023-10-29T20:29:35.943Z,0.35
2023-10-29T20:32:21.171Z,0.50
2023-10-29T20:35:06.863Z,0.60
2023-10-29T20:37:52.080Z,0.40
2023-10-29T20:40:36.889Z,0.50
2023-10-29T20:43:22.209Z,0.57
2023-10-29T20:46:09.889Z,0.28
2023-10-29T20:48:54.976Z,0.50
2023-10-29T20:51:40.284Z,0.60
2023-10-29T20:54:25.324Z,0.60
2023-10-29T20:57:10.813Z,0.32
2023-10-29T20:59:56.087Z,0.47
2023-10-29T21:02:41.349Z,0.60
2023-10-29T21:05:28.184Z,0.70
2023-10-29T21:08:13.076Z,0.60
2023-10-29T21:11:05.342Z,0.40
2023-10-29T21:13:50.274Z,0.40
2023-10-29T21:16:35.275Z,0.37
2023-10-29T21:19:26.879Z,0.50
2023-10-29T21:22:14.977Z,0.70
2023-10-29T21:24:59.974Z,0.30
2023-10-29T21:27:44.936Z,0.85
2023-10-29T21:30:29.918Z,0.50
2023-10-29T21:33:15.044Z,0.75
2023-10-29T21:36:06.901Z,0.80
2023-10-29T21:38:52.083Z,2.03
2023-10-29T21:41:37.327Z,0.52
2023-10-29T21:44:22.256Z,0.53
2023-10-29T21:47:07.313Z,0.50
2023-10-29T21:49:52.148Z,0.40
2023-10-29T21:52:40.345Z,0.40
2023-10-29T21:55:25.161Z,0.57
2023-10-29T21:58:11.091Z,0.60
2023-10-29T22:00:56.670Z,0.40
2023-10-29T22:03:43.626Z,0.80
2023-10-29T22:06:29.628Z,1.08
2023-10-29T22:09:14.650Z,0.63
2023-10-29T22:11:59.869Z,0.60
2023-10-29T22:14:44.942Z,0.85
2023-10-29T22:17:30.138Z,0.82
2023-10-29T22:20:15.090Z,0.50
2023-10-29T22:22:59.953Z,0.57
2023-10-29T22:25:46.581Z,0.60
2023-10-29T22:28:33.223Z,0.40
2023-10-29T22:31:18.332Z,0.50
2023-10-29T22:34:03.284Z,0.50
2023-10-29T22:36:48.169Z,0.60
2023-10-29T22:39:34.387Z,0.57
2023-10-29T22:42:19.445Z,0.60
2023-10-29T22:45:04.717Z,0.60
2023-10-29T22:47:50.302Z,0.45
2023-10-29T22:50:35.495Z,0.60
2023-10-29T22:53:20.931Z,1.03
2023-10-29T22:56:06.275Z,1.85
2023-10-29T22:58:51.293Z,2.63
2023-10-29T23:01:36.819Z,5.32
2023-10-29T23:04:22.087Z,2.67
2023-10-29T23:07:07.192Z,4.60
2023-10-29T23:09:52.126Z,4.18
2023-10-29T23:12:37.468Z,3.30
2023-10-29T23:15:22.839Z,2.70
2023-10-29T23:18:07.753Z,4.35
2023-10-29T23:20:53.472Z,0.97
2023-10-29T23:23:38.314Z,2.58
2023-10-29T23:26:23.613Z,1.08
2023-10-29T23:29:09.095Z,0.50
2023-10-29T23:31:54.359Z,0.70
2023-10-29T23:34:39.418Z,0.90
2023-10-29T23:37:24.301Z,0.93
2023-10-29T23:40:09.959Z,1.17
2023-10-29T23:42:55.026Z,0.90
2023-10-29T23:45:40.023Z,1.65
2023-10-29T23:48:25.290Z,0.97
2023-10-29T23:51:10.620Z,0.82
2023-10-29T23:53:55.588Z,0.70
2023-10-29T23:56:40.546Z,0.80
2023-10-29T23:59:25.728Z,0.70
